Arlington, Maryland
Current Conditions -  °F | °C
As of 3:54 PM on Saturday 25 Oct 2014 (Local Time) from KBWI Reporting Station
Broken Clouds Broken Clouds  
Wind Chill: 69°   Ceiling: 11000
Heat Index: 69°   Visibility: 10mi
Dew Point: 42°   Wind: 8mph
Humidity: 38%   Direction: 260°W
Pressure: 29.78"   Gusts: NA
Location:  39.3453°N, 76.6832°W
Report Text: KBWI 251954Z 26007KT 10SM BKN110 21/06 A2978 RMK AO2 SLP084 ACSL NE T02060056
Loading
Personal Weather Stations






























Interactive Weather Map New forecast layout! Learn more

10-Day Weather Forecast

Advertisements
Track Severe Weather on mobile